sensor_id;sensor_type;location;lat;lon;timestamp;P1;durP1;ratioP1;P2;durP2;ratioP2
30948;SDS011;17637;51.984;21.208;2023-08-12T00:01:31;20.33;;;12.88;;
30948;SDS011;17637;51.984;21.208;2023-08-12T00:04:03;21.27;;;12.60;;
30948;SDS011;17637;51.984;21.208;2023-08-12T00:06:35;18.67;;;12.60;;
30948;SDS011;17637;51.984;21.208;2023-08-12T00:09:07;18.70;;;12.70;;
30948;SDS011;17637;51.984;21.208;2023-08-12T00:11:39;20.80;;;13.27;;
30948;SDS011;17637;51.984;21.208;2023-08-12T00:14:11;19.27;;;13.30;;
30948;SDS011;17637;51.984;21.208;2023-08-12T00:16:43;19.55;;;12.95;;
30948;SDS011;17637;51.984;21.208;2023-08-12T00:19:15;17.48;;;12.52;;
30948;SDS011;17637;51.984;21.208;2023-08-12T00:21:46;19.25;;;12.25;;
30948;SDS011;17637;51.984;21.208;2023-08-12T00:24:18;15.65;;;11.68;;
30948;SDS011;17637;51.984;21.208;2023-08-12T00:26:50;15.75;;;11.95;;
30948;SDS011;17637;51.984;21.208;2023-08-12T00:29:22;19.88;;;12.80;;
30948;SDS011;17637;51.984;21.208;2023-08-12T00:31:54;20.95;;;13.32;;
30948;SDS011;17637;51.984;21.208;2023-08-12T00:34:27;15.48;;;11.00;;
30948;SDS011;17637;51.984;21.208;2023-08-12T00:36:59;20.10;;;12.18;;
30948;SDS011;17637;51.984;21.208;2023-08-12T00:39:31;15.80;;;10.82;;
30948;SDS011;17637;51.984;21.208;2023-08-12T00:42:03;17.38;;;12.43;;
30948;SDS011;17637;51.984;21.208;2023-08-12T00:44:35;16.58;;;11.05;;
30948;SDS011;17637;51.984;21.208;2023-08-12T00:47:07;15.95;;;11.18;;
30948;SDS011;17637;51.984;21.208;2023-08-12T00:49:39;16.75;;;12.00;;
30948;SDS011;17637;51.984;21.208;2023-08-12T00:52:14;16.55;;;10.80;;
30948;SDS011;17637;51.984;21.208;2023-08-12T00:54:48;16.33;;;11.25;;
30948;SDS011;17637;51.984;21.208;2023-08-12T00:57:20;14.85;;;11.55;;
30948;SDS011;17637;51.984;21.208;2023-08-12T00:59:52;19.27;;;12.80;;
30948;SDS011;17637;51.984;21.208;2023-08-12T01:02:27;15.27;;;10.82;;
30948;SDS011;17637;51.984;21.208;2023-08-12T01:04:59;17.15;;;11.15;;
30948;SDS011;17637;51.984;21.208;2023-08-12T01:07:30;14.77;;;10.73;;
30948;SDS011;17637;51.984;21.208;2023-08-12T01:10:02;15.65;;;11.15;;
30948;SDS011;17637;51.984;21.208;2023-08-12T01:12:36;18.08;;;11.07;;
30948;SDS011;17637;51.984;21.208;2023-08-12T01:15:14;17.80;;;9.98;;
30948;SDS011;17637;51.984;21.208;2023-08-12T01:17:48;13.10;;;9.02;;
30948;SDS011;17637;51.984;21.208;2023-08-12T01:20:23;16.90;;;11.13;;
30948;SDS011;17637;51.984;21.208;2023-08-12T01:23:16;15.15;;;10.13;;
30948;SDS011;17637;51.984;21.208;2023-08-12T01:25:48;14.57;;;9.77;;
30948;SDS011;17637;51.984;21.208;2023-08-12T01:28:19;15.98;;;10.57;;
30948;SDS011;17637;51.984;21.208;2023-08-12T01:30:54;14.57;;;10.52;;
30948;SDS011;17637;51.984;21.208;2023-08-12T01:33:37;14.85;;;10.32;;
30948;SDS011;17637;51.984;21.208;2023-08-12T01:36:16;12.98;;;9.43;;
30948;SDS011;17637;51.984;21.208;2023-08-12T01:38:50;12.77;;;9.45;;
30948;SDS011;17637;51.984;21.208;2023-08-12T01:41:23;13.77;;;9.75;;
30948;SDS011;17637;51.984;21.208;2023-08-12T01:43:56;14.20;;;9.70;;
30948;SDS011;17637;51.984;21.208;2023-08-12T01:46:28;12.25;;;9.05;;
30948;SDS011;17637;51.984;21.208;2023-08-12T01:49:00;11.70;;;8.40;;
30948;SDS011;17637;51.984;21.208;2023-08-12T01:51:32;12.77;;;9.68;;
30948;SDS011;17637;51.984;21.208;2023-08-12T01:54:04;13.45;;;8.82;;
30948;SDS011;17637;51.984;21.208;2023-08-12T01:56:36;14.23;;;10.18;;
30948;SDS011;17637;51.984;21.208;2023-08-12T01:59:08;12.55;;;8.40;;
30948;SDS011;17637;51.984;21.208;2023-08-12T02:01:39;11.85;;;7.93;;
30948;SDS011;17637;51.984;21.208;2023-08-12T02:04:11;13.20;;;7.75;;
30948;SDS011;17637;51.984;21.208;2023-08-12T02:06:43;11.60;;;8.13;;
30948;SDS011;17637;51.984;21.208;2023-08-12T02:09:15;12.73;;;8.23;;
30948;SDS011;17637;51.984;21.208;2023-08-12T02:11:47;10.30;;;7.55;;
30948;SDS011;17637;51.984;21.208;2023-08-12T02:14:18;12.60;;;8.10;;
30948;SDS011;17637;51.984;21.208;2023-08-12T02:16:50;10.30;;;7.60;;
30948;SDS011;17637;51.984;21.208;2023-08-12T02:19:22;10.63;;;8.10;;
30948;SDS011;17637;51.984;21.208;2023-08-12T02:21:54;12.25;;;8.52;;
30948;SDS011;17637;51.984;21.208;2023-08-12T02:24:26;12.57;;;7.85;;
30948;SDS011;17637;51.984;21.208;2023-08-12T02:26:57;10.38;;;7.53;;
30948;SDS011;17637;51.984;21.208;2023-08-12T02:29:29;12.48;;;8.38;;
30948;SDS011;17637;51.984;21.208;2023-08-12T02:32:01;12.25;;;7.97;;
30948;SDS011;17637;51.984;21.208;2023-08-12T02:34:33;12.27;;;8.57;;
30948;SDS011;17637;51.984;21.208;2023-08-12T02:37:05;11.30;;;7.85;;
30948;SDS011;17637;51.984;21.208;2023-08-12T02:39:36;11.27;;;8.25;;
30948;SDS011;17637;51.984;21.208;2023-08-12T02:42:08;12.30;;;9.10;;
30948;SDS011;17637;51.984;21.208;2023-08-12T02:44:40;11.32;;;8.07;;
30948;SDS011;17637;51.984;21.208;2023-08-12T02:47:12;13.90;;;9.18;;
30948;SDS011;17637;51.984;21.208;2023-08-12T02:49:44;12.15;;;8.30;;
30948;SDS011;17637;51.984;21.208;2023-08-12T02:52:16;12.57;;;9.00;;
30948;SDS011;17637;51.984;21.208;2023-08-12T02:54:48;12.93;;;9.88;;
30948;SDS011;17637;51.984;21.208;2023-08-12T02:57:20;12.43;;;8.70;;
30948;SDS011;17637;51.984;21.208;2023-08-12T02:59:52;11.18;;;8.88;;
30948;SDS011;17637;51.984;21.208;2023-08-12T03:02:23;12.73;;;8.23;;
30948;SDS011;17637;51.984;21.208;2023-08-12T03:04:55;12.80;;;8.35;;
30948;SDS011;17637;51.984;21.208;2023-08-12T03:07:27;11.70;;;7.85;;
30948;SDS011;17637;51.984;21.208;2023-08-12T03:09:59;14.25;;;8.90;;
30948;SDS011;17637;51.984;21.208;2023-08-12T03:12:31;13.45;;;8.63;;
30948;SDS011;17637;51.984;21.208;2023-08-12T03:15:05;11.93;;;7.82;;
30948;SDS011;17637;51.984;21.208;2023-08-12T03:17:40;12.65;;;8.52;;
30948;SDS011;17637;51.984;21.208;2023-08-12T03:20:13;11.05;;;8.18;;
30948;SDS011;17637;51.984;21.208;2023-08-12T03:22:44;10.85;;;8.07;;
30948;SDS011;17637;51.984;21.208;2023-08-12T03:25:16;11.82;;;8.05;;
30948;SDS011;17637;51.984;21.208;2023-08-12T03:27:48;12.27;;;7.75;;
30948;SDS011;17637;51.984;21.208;2023-08-12T03:30:20;10.82;;;8.60;;
30948;SDS011;17637;51.984;21.208;2023-08-12T03:32:52;10.38;;;7.22;;
30948;SDS011;17637;51.984;21.208;2023-08-12T03:35:24;9.85;;;7.45;;
30948;SDS011;17637;51.984;21.208;2023-08-12T03:37:56;12.30;;;7.70;;
30948;SDS011;17637;51.984;21.208;2023-08-12T03:40:28;12.05;;;7.90;;
30948;SDS011;17637;51.984;21.208;2023-08-12T03:42:59;12.40;;;8.68;;
30948;SDS011;17637;51.984;21.208;2023-08-12T03:45:31;14.32;;;8.13;;
30948;SDS011;17637;51.984;21.208;2023-08-12T03:48:03;12.55;;;7.82;;
30948;SDS011;17637;51.984;21.208;2023-08-12T03:50:38;14.52;;;8.35;;
30948;SDS011;17637;51.984;21.208;2023-08-12T03:53:11;10.73;;;8.52;;
30948;SDS011;17637;51.984;21.208;2023-08-12T03:55:42;11.50;;;8.10;;
30948;SDS011;17637;51.984;21.208;2023-08-12T03:58:14;11.40;;;8.68;;
30948;SDS011;17637;51.984;21.208;2023-08-12T04:00:46;13.68;;;8.68;;
30948;SDS011;17637;51.984;21.208;2023-08-12T04:03:18;11.10;;;8.55;;
30948;SDS011;17637;51.984;21.208;2023-08-12T04:05:50;11.30;;;8.35;;
30948;SDS011;17637;51.984;21.208;2023-08-12T04:08:24;12.23;;;7.93;;
30948;SDS011;17637;51.984;21.208;2023-08-12T04:10:56;12.23;;;8.20;;
30948;SDS011;17637;51.984;21.208;2023-08-12T04:13:27;13.70;;;8.75;;
30948;SDS011;17637;51.984;21.208;2023-08-12T04:15:59;12.60;;;8.02;;
30948;SDS011;17637;51.984;21.208;2023-08-12T04:18:31;12.00;;;8.25;;
30948;SDS011;17637;51.984;21.208;2023-08-12T04:21:03;13.15;;;8.15;;
30948;SDS011;17637;51.984;21.208;2023-08-12T04:23:35;15.23;;;8.23;;
30948;SDS011;17637;51.984;21.208;2023-08-12T04:26:07;11.90;;;7.72;;
30948;SDS011;17637;51.984;21.208;2023-08-12T04:28:39;15.50;;;9.23;;
30948;SDS011;17637;51.984;21.208;2023-08-12T04:31:10;14.98;;;8.70;;
30948;SDS011;17637;51.984;21.208;2023-08-12T04:33:42;16.77;;;9.38;;
30948;SDS011;17637;51.984;21.208;2023-08-12T04:36:14;11.30;;;8.68;;
30948;SDS011;17637;51.984;21.208;2023-08-12T04:38:46;12.90;;;9.40;;
30948;SDS011;17637;51.984;21.208;2023-08-12T04:41:18;14.90;;;9.07;;
30948;SDS011;17637;51.984;21.208;2023-08-12T04:43:50;15.27;;;9.32;;
30948;SDS011;17637;51.984;21.208;2023-08-12T04:46:22;14.35;;;10.10;;
30948;SDS011;17637;51.984;21.208;2023-08-12T04:48:53;12.43;;;8.57;;
30948;SDS011;17637;51.984;21.208;2023-08-12T04:51:26;12.82;;;8.63;;
30948;SDS011;17637;51.984;21.208;2023-08-12T04:53:58;13.88;;;8.63;;
30948;SDS011;17637;51.984;21.208;2023-08-12T04:56:31;13.90;;;9.82;;
30948;SDS011;17637;51.984;21.208;2023-08-12T04:59:03;19.15;;;11.52;;
30948;SDS011;17637;51.984;21.208;2023-08-12T05:01:35;14.52;;;9.23;;
30948;SDS011;17637;51.984;21.208;2023-08-12T05:04:13;17.67;;;10.93;;
30948;SDS011;17637;51.984;21.208;2023-08-12T05:06:44;17.98;;;9.90;;
30948;SDS011;17637;51.984;21.208;2023-08-12T05:09:16;11.93;;;8.90;;
30948;SDS011;17637;51.984;21.208;2023-08-12T05:11:48;16.73;;;8.63;;
30948;SDS011;17637;51.984;21.208;2023-08-12T05:14:20;14.48;;;8.82;;
30948;SDS011;17637;51.984;21.208;2023-08-12T05:16:52;15.50;;;7.53;;
30948;SDS011;17637;51.984;21.208;2023-08-12T05:19:24;14.00;;;7.55;;
30948;SDS011;17637;51.984;21.208;2023-08-12T05:21:55;12.55;;;7.03;;
30948;SDS011;17637;51.984;21.208;2023-08-12T05:24:27;12.95;;;7.28;;
30948;SDS011;17637;51.984;21.208;2023-08-12T05:26:59;12.95;;;6.68;;
30948;SDS011;17637;51.984;21.208;2023-08-12T05:29:31;11.75;;;6.68;;
30948;SDS011;17637;51.984;21.208;2023-08-12T05:32:03;9.45;;;6.40;;
30948;SDS011;17637;51.984;21.208;2023-08-12T05:34:35;10.52;;;5.32;;
30948;SDS011;17637;51.984;21.208;2023-08-12T05:37:07;11.10;;;5.40;;
30948;SDS011;17637;51.984;21.208;2023-08-12T05:39:39;10.63;;;5.30;;
30948;SDS011;17637;51.984;21.208;2023-08-12T05:42:11;12.88;;;5.80;;
30948;SDS011;17637;51.984;21.208;2023-08-12T05:44:43;9.57;;;5.30;;
30948;SDS011;17637;51.984;21.208;2023-08-12T05:47:15;9.98;;;5.10;;
30948;SDS011;17637;51.984;21.208;2023-08-12T05:49:46;11.95;;;5.28;;
30948;SDS011;17637;51.984;21.208;2023-08-12T05:52:18;7.82;;;4.10;;
30948;SDS011;17637;51.984;21.208;2023-08-12T05:54:50;14.23;;;5.20;;
30948;SDS011;17637;51.984;21.208;2023-08-12T05:57:22;7.30;;;4.68;;
30948;SDS011;17637;51.984;21.208;2023-08-12T05:59:55;10.00;;;4.90;;
30948;SDS011;17637;51.984;21.208;2023-08-12T06:02:27;7.35;;;4.30;;
30948;SDS011;17637;51.984;21.208;2023-08-12T06:04:59;7.47;;;4.60;;
30948;SDS011;17637;51.984;21.208;2023-08-12T06:07:30;7.65;;;5.00;;
30948;SDS011;17637;51.984;21.208;2023-08-12T06:10:02;8.70;;;4.47;;
30948;SDS011;17637;51.984;21.208;2023-08-12T06:12:34;6.80;;;4.43;;
30948;SDS011;17637;51.984;21.208;2023-08-12T06:15:06;8.93;;;4.05;;
30948;SDS011;17637;51.984;21.208;2023-08-12T06:17:38;12.38;;;5.10;;
30948;SDS011;17637;51.984;21.208;2023-08-12T06:20:10;14.15;;;5.78;;
30948;SDS011;17637;51.984;21.208;2023-08-12T06:22:43;10.88;;;4.90;;
30948;SDS011;17637;51.984;21.208;2023-08-12T06:25:14;7.35;;;4.22;;
30948;SDS011;17637;51.984;21.208;2023-08-12T06:27:46;12.95;;;4.88;;
30948;SDS011;17637;51.984;21.208;2023-08-12T06:30:18;7.90;;;4.68;;
30948;SDS011;17637;51.984;21.208;2023-08-12T06:32:50;8.63;;;4.30;;
30948;SDS011;17637;51.984;21.208;2023-08-12T06:35:22;6.50;;;3.60;;
30948;SDS011;17637;51.984;21.208;2023-08-12T06:37:54;5.88;;;3.83;;
30948;SDS011;17637;51.984;21.208;2023-08-12T06:40:26;6.82;;;4.10;;
30948;SDS011;17637;51.984;21.208;2023-08-12T06:42:59;7.20;;;3.70;;
30948;SDS011;17637;51.984;21.208;2023-08-12T06:45:31;7.93;;;3.72;;
30948;SDS011;17637;51.984;21.208;2023-08-12T06:48:03;11.10;;;4.18;;
30948;SDS011;17637;51.984;21.208;2023-08-12T06:50:35;5.18;;;3.38;;
30948;SDS011;17637;51.984;21.208;2023-08-12T06:53:07;8.82;;;3.63;;
30948;SDS011;17637;51.984;21.208;2023-08-12T06:55:43;7.55;;;4.07;;
30948;SDS011;17637;51.984;21.208;2023-08-12T06:58:16;9.07;;;3.70;;
30948;SDS011;17637;51.984;21.208;2023-08-12T07:00:48;4.90;;;3.30;;
30948;SDS011;17637;51.984;21.208;2023-08-12T07:03:20;8.75;;;3.63;;
30948;SDS011;17637;51.984;21.208;2023-08-12T07:05:52;7.53;;;3.33;;
30948;SDS011;17637;51.984;21.208;2023-08-12T07:08:25;9.50;;;3.60;;
30948;SDS011;17637;51.984;21.208;2023-08-12T07:10:58;8.15;;;3.58;;
30948;SDS011;17637;51.984;21.208;2023-08-12T07:13:30;5.80;;;3.08;;
30948;SDS011;17637;51.984;21.208;2023-08-12T07:16:02;6.40;;;3.42;;
30948;SDS011;17637;51.984;21.208;2023-08-12T07:18:34;5.88;;;2.90;;
30948;SDS011;17637;51.984;21.208;2023-08-12T07:21:05;8.77;;;3.10;;
30948;SDS011;17637;51.984;21.208;2023-08-12T07:23:37;4.80;;;2.90;;
30948;SDS011;17637;51.984;21.208;2023-08-12T07:26:14;5.38;;;2.05;;
30948;SDS011;17637;51.984;21.208;2023-08-12T07:28:45;3.80;;;2.10;;
30948;SDS011;17637;51.984;21.208;2023-08-12T07:31:17;4.63;;;2.22;;
30948;SDS011;17637;51.984;21.208;2023-08-12T07:33:49;7.10;;;2.10;;
30948;SDS011;17637;51.984;21.208;2023-08-12T07:36:21;7.07;;;2.05;;
30948;SDS011;17637;51.984;21.208;2023-08-12T07:38:53;4.82;;;2.35;;
30948;SDS011;17637;51.984;21.208;2023-08-12T07:41:25;9.13;;;2.20;;
30948;SDS011;17637;51.984;21.208;2023-08-12T07:43:59;3.65;;;1.92;;
30948;SDS011;17637;51.984;21.208;2023-08-12T07:46:31;5.25;;;1.92;;
30948;SDS011;17637;51.984;21.208;2023-08-12T07:49:03;6.72;;;2.08;;
30948;SDS011;17637;51.984;21.208;2023-08-12T07:51:35;3.15;;;1.88;;
30948;SDS011;17637;51.984;21.208;2023-08-12T07:54:07;4.07;;;2.00;;
30948;SDS011;17637;51.984;21.208;2023-08-12T07:56:39;4.82;;;1.80;;
30948;SDS011;17637;51.984;21.208;2023-08-12T07:59:11;5.07;;;1.95;;
30948;SDS011;17637;51.984;21.208;2023-08-12T08:01:42;4.13;;;1.60;;
30948;SDS011;17637;51.984;21.208;2023-08-12T08:04:14;4.95;;;1.70;;
30948;SDS011;17637;51.984;21.208;2023-08-12T08:06:46;4.57;;;1.90;;
30948;SDS011;17637;51.984;21.208;2023-08-12T08:09:21;4.78;;;1.80;;
30948;SDS011;17637;51.984;21.208;2023-08-12T08:11:53;3.75;;;1.45;;
30948;SDS011;17637;51.984;21.208;2023-08-12T08:14:27;6.55;;;2.00;;
30948;SDS011;17637;51.984;21.208;2023-08-12T08:16:59;3.97;;;1.58;;
30948;SDS011;17637;51.984;21.208;2023-08-12T08:19:31;4.50;;;1.35;;
30948;SDS011;17637;51.984;21.208;2023-08-12T08:22:03;5.65;;;1.58;;
30948;SDS011;17637;51.984;21.208;2023-08-12T08:24:34;4.60;;;1.50;;
30948;SDS011;17637;51.984;21.208;2023-08-12T08:27:06;7.78;;;1.63;;
30948;SDS011;17637;51.984;21.208;2023-08-12T08:29:39;3.80;;;1.50;;
30948;SDS011;17637;51.984;21.208;2023-08-12T08:32:10;4.13;;;1.48;;
30948;SDS011;17637;51.984;21.208;2023-08-12T08:34:43;4.00;;;1.55;;
30948;SDS011;17637;51.984;21.208;2023-08-12T08:37:14;5.65;;;1.90;;
30948;SDS011;17637;51.984;21.208;2023-08-12T08:39:47;3.90;;;1.52;;
30948;SDS011;17637;51.984;21.208;2023-08-12T08:42:19;3.88;;;1.38;;
30948;SDS011;17637;51.984;21.208;2023-08-12T08:44:52;5.32;;;1.80;;
30948;SDS011;17637;51.984;21.208;2023-08-12T08:47:25;4.45;;;1.65;;
30948;SDS011;17637;51.984;21.208;2023-08-12T08:49:58;3.22;;;1.60;;
30948;SDS011;17637;51.984;21.208;2023-08-12T08:52:31;5.93;;;1.70;;
30948;SDS011;17637;51.984;21.208;2023-08-12T08:55:04;6.05;;;1.55;;
30948;SDS011;17637;51.984;21.208;2023-08-12T08:57:38;3.45;;;1.33;;
30948;SDS011;17637;51.984;21.208;2023-08-12T09:00:18;2.72;;;1.30;;
30948;SDS011;17637;51.984;21.208;2023-08-12T09:02:50;2.58;;;1.50;;
30948;SDS011;17637;51.984;21.208;2023-08-12T09:05:22;2.67;;;1.40;;
30948;SDS011;17637;51.984;21.208;2023-08-12T09:07:55;5.07;;;1.90;;
30948;SDS011;17637;51.984;21.208;2023-08-12T09:10:28;5.43;;;1.90;;
30948;SDS011;17637;51.984;21.208;2023-08-12T09:13:02;5.55;;;1.88;;
30948;SDS011;17637;51.984;21.208;2023-08-12T09:15:34;8.48;;;2.05;;
30948;SDS011;17637;51.984;21.208;2023-08-12T09:18:06;3.95;;;1.60;;
30948;SDS011;17637;51.984;21.208;2023-08-12T09:20:38;5.28;;;1.85;;
30948;SDS011;17637;51.984;21.208;2023-08-12T09:23:10;3.80;;;2.08;;
30948;SDS011;17637;51.984;21.208;2023-08-12T09:25:44;4.70;;;1.80;;
30948;SDS011;17637;51.984;21.208;2023-08-12T09:28:16;3.58;;;1.40;;
30948;SDS011;17637;51.984;21.208;2023-08-12T09:30:51;4.68;;;1.60;;
30948;SDS011;17637;51.984;21.208;2023-08-12T09:33:26;6.88;;;2.17;;
30948;SDS011;17637;51.984;21.208;2023-08-12T09:35:58;3.97;;;1.92;;
30948;SDS011;17637;51.984;21.208;2023-08-12T09:38:29;3.78;;;1.50;;
30948;SDS011;17637;51.984;21.208;2023-08-12T09:41:02;3.97;;;1.38;;
30948;SDS011;17637;51.984;21.208;2023-08-12T09:43:34;2.85;;;1.52;;
30948;SDS011;17637;51.984;21.208;2023-08-12T09:46:06;2.47;;;1.60;;
30948;SDS011;17637;51.984;21.208;2023-08-12T09:48:38;4.13;;;1.60;;
30948;SDS011;17637;51.984;21.208;2023-08-12T09:51:10;3.78;;;1.50;;
30948;SDS011;17637;51.984;21.208;2023-08-12T09:53:42;2.30;;;1.40;;
30948;SDS011;17637;51.984;21.208;2023-08-12T09:56:14;2.53;;;1.55;;
30948;SDS011;17637;51.984;21.208;2023-08-12T09:58:50;8.15;;;1.88;;
30948;SDS011;17637;51.984;21.208;2023-08-12T10:01:23;3.72;;;1.80;;
30948;SDS011;17637;51.984;21.208;2023-08-12T10:03:56;3.80;;;1.73;;
30948;SDS011;17637;51.984;21.208;2023-08-12T10:06:27;3.05;;;1.58;;
30948;SDS011;17637;51.984;21.208;2023-08-12T10:09:00;5.30;;;1.85;;
30948;SDS011;17637;51.984;21.208;2023-08-12T10:11:33;4.68;;;1.90;;
30948;SDS011;17637;51.984;21.208;2023-08-12T10:14:05;6.03;;;1.92;;
30948;SDS011;17637;51.984;21.208;2023-08-12T10:16:37;2.13;;;1.55;;
30948;SDS011;17637;51.984;21.208;2023-08-12T10:19:10;3.58;;;1.67;;
30948;SDS011;17637;51.984;21.208;2023-08-12T10:21:44;4.20;;;1.85;;
30948;SDS011;17637;51.984;21.208;2023-08-12T10:24:16;4.13;;;1.73;;
30948;SDS011;17637;51.984;21.208;2023-08-12T10:26:49;3.72;;;1.80;;
30948;SDS011;17637;51.984;21.208;2023-08-12T10:29:24;3.33;;;1.70;;
30948;SDS011;17637;51.984;21.208;2023-08-12T10:31:56;4.38;;;1.73;;
30948;SDS011;17637;51.984;21.208;2023-08-12T10:34:29;5.40;;;1.85;;
30948;SDS011;17637;51.984;21.208;2023-08-12T10:37:01;4.45;;;1.52;;
30948;SDS011;17637;51.984;21.208;2023-08-12T10:39:34;2.17;;;1.25;;
30948;SDS011;17637;51.984;21.208;2023-08-12T10:42:06;3.47;;;1.52;;
30948;SDS011;17637;51.984;21.208;2023-08-12T10:44:39;2.83;;;1.33;;
30948;SDS011;17637;51.984;21.208;2023-08-12T10:47:12;4.32;;;1.95;;
30948;SDS011;17637;51.984;21.208;2023-08-12T10:49:47;6.25;;;1.95;;
30948;SDS011;17637;51.984;21.208;2023-08-12T10:52:27;6.28;;;2.20;;
30948;SDS011;17637;51.984;21.208;2023-08-12T10:57:54;3.50;;;1.80;;
30948;SDS011;17637;51.984;21.208;2023-08-12T11:00:29;5.55;;;2.03;;
30948;SDS011;17637;51.984;21.208;2023-08-12T11:03:02;6.20;;;1.58;;
30948;SDS011;17637;51.984;21.208;2023-08-12T11:05:37;4.45;;;1.88;;
30948;SDS011;17637;51.984;21.208;2023-08-12T11:08:11;4.25;;;1.92;;
30948;SDS011;17637;51.984;21.208;2023-08-12T11:10:44;4.38;;;1.60;;
30948;SDS011;17637;51.984;21.208;2023-08-12T11:13:16;5.10;;;1.60;;
30948;SDS011;17637;51.984;21.208;2023-08-12T11:15:48;3.13;;;1.48;;
30948;SDS011;17637;51.984;21.208;2023-08-12T11:18:21;3.65;;;1.90;;
30948;SDS011;17637;51.984;21.208;2023-08-12T11:20:53;6.22;;;2.20;;
30948;SDS011;17637;51.984;21.208;2023-08-12T11:23:24;4.78;;;1.77;;
30948;SDS011;17637;51.984;21.208;2023-08-12T11:25:56;3.90;;;2.13;;
30948;SDS011;17637;51.984;21.208;2023-08-12T11:28:29;3.72;;;1.83;;
30948;SDS011;17637;51.984;21.208;2023-08-12T11:31:01;4.43;;;1.75;;
30948;SDS011;17637;51.984;21.208;2023-08-12T11:33:33;5.80;;;1.90;;
30948;SDS011;17637;51.984;21.208;2023-08-12T11:36:05;5.60;;;1.90;;
30948;SDS011;17637;51.984;21.208;2023-08-12T11:38:37;4.50;;;1.90;;
30948;SDS011;17637;51.984;21.208;2023-08-12T11:41:09;3.60;;;1.90;;
30948;SDS011;17637;51.984;21.208;2023-08-12T11:43:41;3.75;;;1.65;;
30948;SDS011;17637;51.984;21.208;2023-08-12T11:46:15;4.22;;;1.42;;
30948;SDS011;17637;51.984;21.208;2023-08-12T11:48:47;4.03;;;1.52;;
30948;SDS011;17637;51.984;21.208;2023-08-12T11:51:22;4.07;;;1.95;;
30948;SDS011;17637;51.984;21.208;2023-08-12T11:53:54;3.88;;;1.67;;
30948;SDS011;17637;51.984;21.208;2023-08-12T11:56:26;6.38;;;2.00;;
30948;SDS011;17637;51.984;21.208;2023-08-12T11:58:58;3.20;;;1.48;;
30948;SDS011;17637;51.984;21.208;2023-08-12T12:01:31;3.08;;;1.65;;
30948;SDS011;17637;51.984;21.208;2023-08-12T12:04:02;4.72;;;2.10;;
30948;SDS011;17637;51.984;21.208;2023-08-12T12:06:38;4.22;;;1.75;;
30948;SDS011;17637;51.984;21.208;2023-08-12T12:09:10;4.38;;;1.90;;
30948;SDS011;17637;51.984;21.208;2023-08-12T12:11:42;4.28;;;1.75;;
30948;SDS011;17637;51.984;21.208;2023-08-12T12:14:13;4.80;;;1.58;;
30948;SDS011;17637;51.984;21.208;2023-08-12T12:16:46;2.53;;;1.33;;
30948;SDS011;17637;51.984;21.208;2023-08-12T12:19:20;4.95;;;1.70;;
30948;SDS011;17637;51.984;21.208;2023-08-12T12:21:53;6.90;;;1.85;;
30948;SDS011;17637;51.984;21.208;2023-08-12T12:24:28;2.58;;;1.40;;
30948;SDS011;17637;51.984;21.208;2023-08-12T12:27:01;3.42;;;1.50;;
30948;SDS011;17637;51.984;21.208;2023-08-12T12:29:34;3.75;;;1.58;;
30948;SDS011;17637;51.984;21.208;2023-08-12T12:32:05;4.93;;;1.80;;
30948;SDS011;17637;51.984;21.208;2023-08-12T12:34:38;2.35;;;1.50;;
30948;SDS011;17637;51.984;21.208;2023-08-12T12:37:09;4.38;;;1.67;;
30948;SDS011;17637;51.984;21.208;2023-08-12T12:39:41;3.15;;;1.70;;
30948;SDS011;17637;51.984;21.208;2023-08-12T12:42:13;2.95;;;1.60;;
30948;SDS011;17637;51.984;21.208;2023-08-12T12:44:45;3.90;;;2.10;;
30948;SDS011;17637;51.984;21.208;2023-08-12T12:47:17;2.33;;;1.38;;
30948;SDS011;17637;51.984;21.208;2023-08-12T12:49:49;3.10;;;1.63;;
30948;SDS011;17637;51.984;21.208;2023-08-12T12:52:21;3.28;;;1.65;;
30948;SDS011;17637;51.984;21.208;2023-08-12T12:54:53;4.10;;;1.60;;
30948;SDS011;17637;51.984;21.208;2023-08-12T12:57:24;5.20;;;1.55;;
30948;SDS011;17637;51.984;21.208;2023-08-12T12:59:56;3.60;;;1.80;;
30948;SDS011;17637;51.984;21.208;2023-08-12T13:02:28;4.18;;;1.67;;
30948;SDS011;17637;51.984;21.208;2023-08-12T13:05:00;3.97;;;1.85;;
30948;SDS011;17637;51.984;21.208;2023-08-12T13:07:32;3.95;;;1.73;;
30948;SDS011;17637;51.984;21.208;2023-08-12T13:10:04;4.38;;;1.60;;
30948;SDS011;17637;51.984;21.208;2023-08-12T13:12:36;2.75;;;1.70;;
30948;SDS011;17637;51.984;21.208;2023-08-12T13:15:08;3.25;;;1.50;;
30948;SDS011;17637;51.984;21.208;2023-08-12T13:17:40;2.72;;;1.17;;
30948;SDS011;17637;51.984;21.208;2023-08-12T13:20:12;3.75;;;1.77;;
30948;SDS011;17637;51.984;21.208;2023-08-12T13:22:43;3.85;;;1.42;;
30948;SDS011;17637;51.984;21.208;2023-08-12T13:25:15;3.72;;;1.77;;
30948;SDS011;17637;51.984;21.208;2023-08-12T13:27:47;3.72;;;1.92;;
30948;SDS011;17637;51.984;21.208;2023-08-12T13:30:19;3.72;;;1.50;;
30948;SDS011;17637;51.984;21.208;2023-08-12T13:32:51;2.60;;;1.70;;
30948;SDS011;17637;51.984;21.208;2023-08-12T13:35:23;4.90;;;1.90;;
30948;SDS011;17637;51.984;21.208;2023-08-12T13:37:54;3.78;;;1.83;;
30948;SDS011;17637;51.984;21.208;2023-08-12T13:40:26;3.35;;;1.65;;
30948;SDS011;17637;51.984;21.208;2023-08-12T13:42:58;4.72;;;2.17;;
30948;SDS011;17637;51.984;21.208;2023-08-12T13:45:30;2.65;;;1.63;;
30948;SDS011;17637;51.984;21.208;2023-08-12T13:48:02;3.42;;;1.77;;
30948;SDS011;17637;51.984;21.208;2023-08-12T13:50:34;5.47;;;1.70;;
30948;SDS011;17637;51.984;21.208;2023-08-12T13:53:06;3.67;;;2.20;;
30948;SDS011;17637;51.984;21.208;2023-08-12T13:55:38;2.53;;;1.40;;
30948;SDS011;17637;51.984;21.208;2023-08-12T13:58:10;3.28;;;1.92;;
30948;SDS011;17637;51.984;21.208;2023-08-12T14:00:42;3.90;;;1.60;;
30948;SDS011;17637;51.984;21.208;2023-08-12T14:03:15;5.13;;;2.28;;
30948;SDS011;17637;51.984;21.208;2023-08-12T14:05:47;4.75;;;2.00;;
30948;SDS011;17637;51.984;21.208;2023-08-12T14:08:19;3.88;;;1.58;;
30948;SDS011;17637;51.984;21.208;2023-08-12T14:10:50;8.05;;;2.17;;
30948;SDS011;17637;51.984;21.208;2023-08-12T14:13:22;5.72;;;1.85;;
30948;SDS011;17637;51.984;21.208;2023-08-12T14:15:54;5.32;;;1.80;;
30948;SDS011;17637;51.984;21.208;2023-08-12T14:18:26;5.05;;;1.77;;
30948;SDS011;17637;51.984;21.208;2023-08-12T14:20:57;3.25;;;1.52;;
30948;SDS011;17637;51.984;21.208;2023-08-12T14:23:29;4.70;;;1.83;;
30948;SDS011;17637;51.984;21.208;2023-08-12T14:26:01;3.47;;;1.60;;
30948;SDS011;17637;51.984;21.208;2023-08-12T14:28:33;3.55;;;1.75;;
30948;SDS011;17637;51.984;21.208;2023-08-12T14:31:05;4.85;;;2.10;;
30948;SDS011;17637;51.984;21.208;2023-08-12T14:33:37;5.15;;;1.75;;
30948;SDS011;17637;51.984;21.208;2023-08-12T14:36:08;3.38;;;1.63;;
30948;SDS011;17637;51.984;21.208;2023-08-12T14:38:40;4.65;;;1.88;;
30948;SDS011;17637;51.984;21.208;2023-08-12T14:41:12;5.60;;;1.80;;
30948;SDS011;17637;51.984;21.208;2023-08-12T14:43:44;4.97;;;1.73;;
30948;SDS011;17637;51.984;21.208;2023-08-12T14:46:16;4.25;;;2.05;;
30948;SDS011;17637;51.984;21.208;2023-08-12T14:48:48;2.58;;;1.85;;
30948;SDS011;17637;51.984;21.208;2023-08-12T14:51:19;4.43;;;2.10;;
30948;SDS011;17637;51.984;21.208;2023-08-12T14:53:51;3.90;;;1.60;;
30948;SDS011;17637;51.984;21.208;2023-08-12T14:56:23;4.18;;;1.67;;
30948;SDS011;17637;51.984;21.208;2023-08-12T14:58:55;4.60;;;1.70;;
30948;SDS011;17637;51.984;21.208;2023-08-12T15:01:27;5.05;;;2.10;;